Time;durP1;ratioP1;P1;durP2;ratioP2;P2;SDS_P1;SDS_P2;PMS_P1;PMS_P2;Temp;Humidity;BMP_temperature;BMP_pressure;BME280_temperature;BME280_humidity;BME280_pressure;Samples;Min_cycle;Max_cycle;Signal;HPM_P1;HPM_P2
2023/03/26 00:01:14;;;;;;;6.57;4.00;;;;;;;;;;5067147;28;20486;-65
2023/03/26 00:03:40;;;;;;;5.90;3.80;;;;;;;;;;5080844;28;20511;-65
2023/03/26 00:06:08;;;;;;;12.50;3.70;;;;;;;;;;5081526;28;20473;-64
2023/03/26 00:08:35;;;;;;;10.50;4.93;;;;;;;;;;5082550;28;20452;-64
2023/03/26 00:11:02;;;;;;;9.03;3.73;;;;;;;;;;5079578;28;20519;-64
2023/03/26 00:13:29;;;;;;;8.53;3.93;;;;;;;;;;5079711;28;20506;-65
2023/03/26 00:15:56;;;;;;;10.63;3.93;;;;;;;;;;5080607;28;20496;-65
2023/03/26 00:18:23;;;;;;;15.87;5.90;;;;;;;;;;5081752;28;20498;-65
2023/03/26 00:20:50;;;;;;;8.77;5.07;;;;;;;;;;5081348;28;20472;-65
2023/03/26 00:23:16;;;;;;;11.30;3.67;;;;;;;;;;5081525;28;20452;-65
2023/03/26 00:25:44;;;;;;;8.43;4.00;;;;;;;;;;5080032;28;20467;-65
2023/03/26 00:28:12;;;;;;;6.20;4.50;;;;;;;;;;5081907;28;20491;-64
2023/03/26 00:30:40;;;;;;;7.20;3.80;;;;;;;;;;5079501;28;20472;-63
2023/03/26 00:33:07;;;;;;;12.93;5.07;;;;;;;;;;5080633;28;20964;-64
2023/03/26 00:35:35;;;;;;;9.00;4.20;;;;;;;;;;5080448;28;20471;-64
2023/03/26 00:38:02;;;;;;;8.60;3.47;;;;;;;;;;5081337;28;20453;-64
2023/03/26 00:40:28;;;;;;;10.50;4.50;;;;;;;;;;5079638;28;20468;-64
2023/03/26 00:42:55;;;;;;;10.97;4.67;;;;;;;;;;5080039;28;20471;-64
2023/03/26 00:45:22;;;;;;;7.23;4.77;;;;;;;;;;5080135;28;20487;-64
2023/03/26 00:47:49;;;;;;;12.03;4.67;;;;;;;;;;5080614;28;20452;-65
2023/03/26 00:50:15;;;;;;;12.33;4.80;;;;;;;;;;5080567;28;20452;-65
2023/03/26 00:52:42;;;;;;;11.00;4.93;;;;;;;;;;5080929;28;20570;-65
2023/03/26 00:55:09;;;;;;;18.00;5.57;;;;;;;;;;5079707;28;20471;-64
2023/03/26 00:57:36;;;;;;;14.50;5.83;;;;;;;;;;5080485;28;20452;-65
2023/03/26 01:00:14;;;;;;;10.77;4.63;;;;;;;;;;5079716;28;20830;-64
2023/03/26 01:02:43;;;;;;;11.90;4.73;;;;;;;;;;5079410;28;21243;-65
2023/03/26 01:05:28;;;;;;;10.93;5.20;;;;;;;;;;5080480;28;20460;-65
2023/03/26 01:07:55;;;;;;;14.53;6.90;;;;;;;;;;5080757;28;20488;-65
2023/03/26 01:10:21;;;;;;;15.03;6.50;;;;;;;;;;5080148;28;20535;-65
2023/03/26 01:12:48;;;;;;;17.17;7.67;;;;;;;;;;5080577;28;20516;-65
2023/03/26 01:15:14;;;;;;;18.53;7.60;;;;;;;;;;5079763;28;20460;-65
2023/03/26 01:17:42;;;;;;;16.17;6.83;;;;;;;;;;5080187;28;20483;-65
2023/03/26 01:20:13;;;;;;;14.50;7.30;;;;;;;;;;5080613;28;20452;-65
2023/03/26 01:22:41;;;;;;;18.57;7.50;;;;;;;;;;5074210;28;20457;-64
2023/03/26 01:25:09;;;;;;;18.20;7.67;;;;;;;;;;5080022;28;20488;-65
2023/03/26 01:27:39;;;;;;;14.80;7.30;;;;;;;;;;5080743;28;20451;-65
2023/03/26 01:30:10;;;;;;;20.70;7.77;;;;;;;;;;5079763;28;20517;-65
2023/03/26 01:32:42;;;;;;;10.03;7.03;;;;;;;;;;5080008;28;20498;-64
2023/03/26 01:35:17;;;;;;;13.80;7.17;;;;;;;;;;5080650;28;20452;-64
2023/03/26 01:37:51;;;;;;;13.80;7.03;;;;;;;;;;5080185;28;20482;-65
2023/03/26 01:40:22;;;;;;;9.63;6.23;;;;;;;;;;5074134;28;20457;-65
2023/03/26 01:42:53;;;;;;;13.00;6.67;;;;;;;;;;5079800;28;20483;-65
2023/03/26 01:45:21;;;;;;;14.40;7.20;;;;;;;;;;5079828;28;20463;-65
2023/03/26 01:47:48;;;;;;;10.40;7.23;;;;;;;;;;5080018;28;21012;-65
2023/03/26 01:50:14;;;;;;;16.00;7.43;;;;;;;;;;5080048;28;20479;-65
2023/03/26 01:52:41;;;;;;;10.97;5.70;;;;;;;;;;5080622;28;20555;-65
2023/03/26 01:55:10;;;;;;;13.23;6.53;;;;;;;;;;5080218;28;20464;-65
2023/03/26 01:57:41;;;;;;;18.13;7.30;;;;;;;;;;5080054;28;20460;-64
2023/03/26 02:00:11;;;;;;;21.27;7.77;;;;;;;;;;5078768;28;20460;-64
2023/03/26 02:02:44;;;;;;;16.60;6.10;;;;;;;;;;5069693;28;20476;-65
2023/03/26 02:05:14;;;;;;;10.37;6.50;;;;;;;;;;5060567;28;20465;-65
2023/03/26 02:07:43;;;;;;;16.13;8.43;;;;;;;;;;5060499;28;20990;-64
2023/03/26 02:10:12;;;;;;;15.90;6.47;;;;;;;;;;5067105;28;20848;-64
2023/03/26 02:12:40;;;;;;;13.70;6.07;;;;;;;;;;5067286;28;20493;-64
2023/03/26 02:15:07;;;;;;;10.93;6.03;;;;;;;;;;5066142;28;21039;-64
2023/03/26 02:17:33;;;;;;;9.50;5.43;;;;;;;;;;5067265;28;20456;-65
2023/03/26 02:20:05;;;;;;;10.53;5.50;;;;;;;;;;5072095;28;20444;-64
2023/03/26 02:22:31;;;;;;;11.57;5.40;;;;;;;;;;5067461;28;20496;-65
2023/03/26 02:24:58;;;;;;;14.40;5.97;;;;;;;;;;5066436;28;20931;-64
2023/03/26 02:27:24;;;;;;;10.57;5.47;;;;;;;;;;5066967;28;20524;-64
2023/03/26 02:29:52;;;;;;;8.07;5.43;;;;;;;;;;5065538;28;20536;-64
2023/03/26 02:32:19;;;;;;;9.23;5.47;;;;;;;;;;5066557;28;20490;-64
2023/03/26 02:34:46;;;;;;;6.43;5.10;;;;;;;;;;5073736;28;20467;-64
2023/03/26 02:37:12;;;;;;;10.50;5.43;;;;;;;;;;5066898;28;20452;-65
2023/03/26 02:39:38;;;;;;;14.13;5.57;;;;;;;;;;5069380;28;20488;-65
2023/03/26 02:42:05;;;;;;;10.93;6.37;;;;;;;;;;5071564;28;20573;-65
2023/03/26 02:44:31;;;;;;;12.73;5.60;;;;;;;;;;5067134;28;20472;-65
2023/03/26 02:46:59;;;;;;;15.00;5.90;;;;;;;;;;5066470;28;20492;-65
2023/03/26 02:49:26;;;;;;;13.30;5.87;;;;;;;;;;5071731;28;20484;-64
2023/03/26 02:51:55;;;;;;;11.43;6.10;;;;;;;;;;5066552;28;20456;-65
2023/03/26 02:54:21;;;;;;;8.53;6.23;;;;;;;;;;5065940;28;20495;-65
2023/03/26 02:56:48;;;;;;;9.77;6.80;;;;;;;;;;5066642;28;20472;-65
2023/03/26 02:59:14;;;;;;;8.63;6.00;;;;;;;;;;5057135;28;20477;-65
2023/03/26 03:01:41;;;;;;;10.80;6.80;;;;;;;;;;5073246;28;20493;-65
2023/03/26 03:04:09;;;;;;;10.90;6.53;;;;;;;;;;5086910;28;20484;-64
2023/03/26 03:06:37;;;;;;;11.10;7.07;;;;;;;;;;5086151;28;20451;-65
2023/03/26 03:09:04;;;;;;;12.90;7.20;;;;;;;;;;5086230;28;20464;-65
2023/03/26 03:11:30;;;;;;;9.60;7.43;;;;;;;;;;5086406;28;20853;-64
2023/03/26 03:13:56;;;;;;;13.97;7.17;;;;;;;;;;5085520;28;20918;-65
2023/03/26 03:16:23;;;;;;;14.00;7.17;;;;;;;;;;5086633;28;20895;-65
2023/03/26 03:18:53;;;;;;;12.93;6.67;;;;;;;;;;5086201;28;20516;-65
2023/03/26 03:21:21;;;;;;;12.87;6.47;;;;;;;;;;5082892;28;20448;-65
2023/03/26 03:23:47;;;;;;;15.07;7.30;;;;;;;;;;5078988;28;20462;-64
2023/03/26 03:26:14;;;;;;;10.47;7.03;;;;;;;;;;5083299;28;20486;-64
2023/03/26 03:28:40;;;;;;;12.30;7.53;;;;;;;;;;5082707;28;20500;-64
2023/03/26 03:31:07;;;;;;;15.17;7.90;;;;;;;;;;5083028;28;20476;-65
2023/03/26 03:33:34;;;;;;;14.00;8.50;;;;;;;;;;5082947;28;20551;-64
2023/03/26 03:36:01;;;;;;;10.83;7.73;;;;;;;;;;5083039;28;20456;-65
2023/03/26 03:38:28;;;;;;;11.17;7.30;;;;;;;;;;5082787;28;20455;-64
2023/03/26 03:40:55;;;;;;;18.07;8.00;;;;;;;;;;5083231;28;20480;-64
2023/03/26 03:43:21;;;;;;;12.63;7.27;;;;;;;;;;5082863;28;20544;-64
2023/03/26 03:45:48;;;;;;;13.73;7.40;;;;;;;;;;5081976;28;20476;-64
2023/03/26 03:48:14;;;;;;;12.60;7.73;;;;;;;;;;5078700;28;20450;-64
2023/03/26 03:50:40;;;;;;;21.73;8.57;;;;;;;;;;5076150;28;20441;-64
2023/03/26 03:53:07;;;;;;;15.00;7.07;;;;;;;;;;5082233;28;20579;-64
2023/03/26 03:55:37;;;;;;;18.27;7.37;;;;;;;;;;5082697;28;20483;-64
2023/03/26 03:58:04;;;;;;;25.03;7.83;;;;;;;;;;5082190;28;20459;-64
2023/03/26 04:00:31;;;;;;;17.10;7.70;;;;;;;;;;5081090;28;20464;-65
2023/03/26 04:02:57;;;;;;;15.00;7.13;;;;;;;;;;5065259;28;20520;-64
2023/03/26 04:05:24;;;;;;;14.80;7.43;;;;;;;;;;5062114;28;20919;-64
2023/03/26 04:07:50;;;;;;;15.73;7.00;;;;;;;;;;5062392;28;20480;-64
2023/03/26 04:10:17;;;;;;;17.57;8.37;;;;;;;;;;5062183;28;20529;-64
2023/03/26 04:12:44;;;;;;;19.63;8.03;;;;;;;;;;5061938;28;20453;-64
2023/03/26 04:15:11;;;;;;;20.40;8.33;;;;;;;;;;5061740;28;20533;-64
2023/03/26 04:17:44;;;;;;;12.73;8.67;;;;;;;;;;5062626;28;20489;-64
2023/03/26 04:20:14;;;;;;;17.70;8.40;;;;;;;;;;5061787;28;20508;-64
2023/03/26 04:22:41;;;;;;;18.10;8.37;;;;;;;;;;5062080;28;20553;-64
2023/03/26 04:25:08;;;;;;;16.83;8.77;;;;;;;;;;5061392;28;20480;-64
2023/03/26 04:27:35;;;;;;;20.17;9.00;;;;;;;;;;5062197;28;20445;-64
2023/03/26 04:30:05;;;;;;;18.53;10.03;;;;;;;;;;5061191;28;20461;-64
2023/03/26 04:32:32;;;;;;;24.30;10.53;;;;;;;;;;5060858;28;20464;-64
2023/03/26 04:34:59;;;;;;;25.17;11.20;;;;;;;;;;5061228;28;20501;-64
2023/03/26 04:37:31;;;;;;;22.67;10.40;;;;;;;;;;5061657;28;20469;-64
2023/03/26 04:39:58;;;;;;;23.20;11.43;;;;;;;;;;5062015;28;20468;-64
2023/03/26 04:42:24;;;;;;;22.77;10.93;;;;;;;;;;5061738;28;20809;-64
2023/03/26 04:44:51;;;;;;;20.57;12.00;;;;;;;;;;5061086;28;20449;-64
2023/03/26 04:47:18;;;;;;;24.23;11.60;;;;;;;;;;5061185;28;20862;-65
2023/03/26 04:49:46;;;;;;;32.60;12.43;;;;;;;;;;5061769;28;20476;-65
2023/03/26 04:52:12;;;;;;;28.77;12.27;;;;;;;;;;5061619;28;20457;-64
2023/03/26 04:54:39;;;;;;;23.40;12.57;;;;;;;;;;5060873;28;21072;-65
2023/03/26 04:57:07;;;;;;;28.10;12.00;;;;;;;;;;5061167;28;21006;-65
2023/03/26 04:59:34;;;;;;;24.73;12.97;;;;;;;;;;5060461;28;20549;-64
2023/03/26 05:02:00;;;;;;;33.80;14.93;;;;;;;;;;5071293;28;20919;-65
2023/03/26 05:04:32;;;;;;;36.10;19.03;;;;;;;;;;5081192;28;20463;-65
2023/03/26 05:06:59;;;;;;;34.33;19.10;;;;;;;;;;5080385;28;21011;-65
2023/03/26 05:09:26;;;;;;;26.53;17.97;;;;;;;;;;5080921;28;20456;-65
2023/03/26 05:11:52;;;;;;;36.87;18.70;;;;;;;;;;5080880;28;20547;-65
2023/03/26 05:14:19;;;;;;;37.17;21.70;;;;;;;;;;5079664;28;20595;-65
2023/03/26 05:16:46;;;;;;;38.03;21.67;;;;;;;;;;5080877;28;20480;-65
2023/03/26 05:19:12;;;;;;;54.37;24.00;;;;;;;;;;5081305;28;20461;-65
2023/03/26 05:21:40;;;;;;;38.70;22.93;;;;;;;;;;5080844;28;20760;-65
2023/03/26 05:24:07;;;;;;;40.63;23.00;;;;;;;;;;5080659;28;20475;-64
2023/03/26 05:26:33;;;;;;;41.90;23.37;;;;;;;;;;5081030;28;20938;-64
2023/03/26 05:29:01;;;;;;;42.70;23.87;;;;;;;;;;5080441;28;20483;-65
2023/03/26 05:31:29;;;;;;;40.13;23.27;;;;;;;;;;5080849;28;20556;-64
2023/03/26 05:33:56;;;;;;;53.67;24.23;;;;;;;;;;5080266;28;20488;-64
2023/03/26 05:36:23;;;;;;;57.47;25.73;;;;;;;;;;5080727;28;20437;-65
2023/03/26 05:38:51;;;;;;;42.53;24.87;;;;;;;;;;5080683;28;20476;-65
2023/03/26 05:41:17;;;;;;;48.20;27.20;;;;;;;;;;5080024;28;20491;-65
2023/03/26 05:43:46;;;;;;;50.40;26.60;;;;;;;;;;5080130;28;20499;-64
2023/03/26 05:46:12;;;;;;;48.53;25.20;;;;;;;;;;5080396;28;20457;-65
2023/03/26 05:48:39;;;;;;;46.73;25.27;;;;;;;;;;5080246;28;20471;-65
2023/03/26 05:51:05;;;;;;;48.53;26.13;;;;;;;;;;5079932;28;20452;-63
2023/03/26 05:53:32;;;;;;;43.57;24.87;;;;;;;;;;5080581;28;20544;-62
2023/03/26 05:56:00;;;;;;;49.60;25.93;;;;;;;;;;5080494;28;20476;-63
2023/03/26 05:58:28;;;;;;;48.60;24.97;;;;;;;;;;5079974;28;20444;-65
2023/03/26 06:00:58;;;;;;;49.27;27.13;;;;;;;;;;5078325;28;20488;-66
2023/03/26 06:03:24;;;;;;;46.80;25.67;;;;;;;;;;5078701;28;20475;-65
2023/03/26 06:05:51;;;;;;;42.23;25.00;;;;;;;;;;5074702;28;20970;-64
2023/03/26 06:08:18;;;;;;;37.50;24.17;;;;;;;;;;5079572;28;20448;-64
2023/03/26 06:10:44;;;;;;;48.47;26.10;;;;;;;;;;5079169;28;20485;-65
2023/03/26 06:13:14;;;;;;;42.07;22.53;;;;;;;;;;5086197;28;21027;-65
2023/03/26 06:15:41;;;;;;;38.30;22.10;;;;;;;;;;5080610;28;20471;-64
2023/03/26 06:18:08;;;;;;;41.80;22.77;;;;;;;;;;5080655;28;20486;-64
2023/03/26 06:20:37;;;;;;;39.50;21.97;;;;;;;;;;5080239;28;20493;-64
2023/03/26 06:23:03;;;;;;;45.43;23.43;;;;;;;;;;5080186;28;20476;-65
2023/03/26 06:25:30;;;;;;;39.97;20.70;;;;;;;;;;5076664;28;20491;-65
2023/03/26 06:27:56;;;;;;;40.93;20.83;;;;;;;;;;5079183;28;20865;-64
2023/03/26 06:30:24;;;;;;;41.43;21.30;;;;;;;;;;5078964;28;20508;-65
2023/03/26 06:32:50;;;;;;;40.83;19.73;;;;;;;;;;5079764;28;20490;-65
2023/03/26 06:35:17;;;;;;;41.67;20.60;;;;;;;;;;5079480;28;20642;-65
2023/03/26 06:37:43;;;;;;;42.37;19.50;;;;;;;;;;5080532;28;20452;-65
2023/03/26 06:40:10;;;;;;;38.07;17.33;;;;;;;;;;5078763;28;20945;-65
2023/03/26 06:42:36;;;;;;;40.83;16.83;;;;;;;;;;5078753;28;20449;-67
2023/03/26 06:45:03;;;;;;;38.97;17.70;;;;;;;;;;5077230;28;20483;-67
2023/03/26 06:47:31;;;;;;;38.73;17.23;;;;;;;;;;5076491;28;20483;-65
2023/03/26 06:49:58;;;;;;;36.70;16.50;;;;;;;;;;5078143;28;20813;-64
2023/03/26 06:52:24;;;;;;;29.20;16.10;;;;;;;;;;5078464;28;21342;-64
2023/03/26 06:54:51;;;;;;;37.97;17.30;;;;;;;;;;5079720;28;20733;-64
2023/03/26 06:57:17;;;;;;;31.47;15.73;;;;;;;;;;5081893;28;20453;-64
2023/03/26 06:59:44;;;;;;;40.37;16.77;;;;;;;;;;5082149;28;20445;-65
2023/03/26 07:02:11;;;;;;;33.83;16.53;;;;;;;;;;5082691;28;20480;-64
2023/03/26 07:04:38;;;;;;;29.87;16.83;;;;;;;;;;5081795;28;20832;-64
2023/03/26 07:07:05;;;;;;;27.83;13.30;;;;;;;;;;5083086;28;20860;-65
2023/03/26 07:09:31;;;;;;;35.50;15.60;;;;;;;;;;5080660;28;20519;-65
2023/03/26 07:11:58;;;;;;;33.80;13.33;;;;;;;;;;5082940;28;20464;-65
2023/03/26 07:14:26;;;;;;;27.43;12.33;;;;;;;;;;5080898;28;20556;-64
2023/03/26 07:16:53;;;;;;;32.37;13.70;;;;;;;;;;5082238;28;20444;-64
2023/03/26 07:19:19;;;;;;;29.30;13.10;;;;;;;;;;5078528;28;20452;-64
2023/03/26 07:21:47;;;;;;;40.80;13.20;;;;;;;;;;5081854;28;20480;-65
2023/03/26 07:24:15;;;;;;;29.13;12.37;;;;;;;;;;5081836;28;20483;-64
2023/03/26 07:26:48;;;;;;;26.73;10.77;;;;;;;;;;5081624;28;20448;-64
2023/03/26 07:29:18;;;;;;;25.53;9.80;;;;;;;;;;5081929;28;20526;-64
2023/03/26 07:31:48;;;;;;;36.80;11.83;;;;;;;;;;5081249;28;20488;-64
2023/03/26 07:34:21;;;;;;;25.20;11.10;;;;;;;;;;5081755;28;20631;-64
2023/03/26 07:36:51;;;;;;;25.30;11.47;;;;;;;;;;5082870;28;20490;-64
2023/03/26 07:39:23;;;;;;;26.30;11.97;;;;;;;;;;5081494;28;20448;-65
2023/03/26 07:41:50;;;;;;;23.20;10.70;;;;;;;;;;5078557;28;20459;-65
2023/03/26 07:44:26;;;;;;;21.63;10.57;;;;;;;;;;5080544;28;20456;-65
2023/03/26 07:46:53;;;;;;;24.03;10.70;;;;;;;;;;5081706;28;20464;-65
2023/03/26 07:49:20;;;;;;;33.67;13.03;;;;;;;;;;5081844;28;20523;-64
2023/03/26 07:51:47;;;;;;;25.10;9.63;;;;;;;;;;5081850;28;20437;-64
2023/03/26 07:54:15;;;;;;;23.63;10.70;;;;;;;;;;5082291;28;20516;-64
2023/03/26 07:56:45;;;;;;;24.70;11.13;;;;;;;;;;5080054;28;20499;-72
2023/03/26 07:59:20;;;;;;;29.20;10.50;;;;;;;;;;5078832;28;20476;-72
2023/03/26 08:01:53;;;;;;;26.63;10.20;;;;;;;;;;5080977;28;20582;-72
2023/03/26 08:04:28;;;;;;;28.07;10.53;;;;;;;;;;5080490;28;20547;-67
2023/03/26 08:06:56;;;;;;;20.40;9.73;;;;;;;;;;5080728;28;20478;-66
2023/03/26 08:09:28;;;;;;;20.00;10.30;;;;;;;;;;5081004;28;20490;-67
2023/03/26 08:11:57;;;;;;;26.70;10.43;;;;;;;;;;5080597;28;20527;-67
2023/03/26 08:14:28;;;;;;;27.47;9.60;;;;;;;;;;5079681;28;20539;-66
2023/03/26 08:16:58;;;;;;;24.20;10.30;;;;;;;;;;5079152;28;20472;-66
2023/03/26 08:19:31;;;;;;;24.23;9.10;;;;;;;;;;5077126;28;20444;-67
2023/03/26 08:22:01;;;;;;;23.00;10.70;;;;;;;;;;5078082;28;20448;-67
2023/03/26 08:24:35;;;;;;;21.10;9.60;;;;;;;;;;5077605;28;20444;-67
2023/03/26 08:27:07;;;;;;;20.77;9.83;;;;;;;;;;5079736;28;20455;-66
2023/03/26 08:29:35;;;;;;;19.33;9.57;;;;;;;;;;5080792;28;20456;-67
2023/03/26 08:32:03;;;;;;;16.60;8.90;;;;;;;;;;5075924;28;20452;-66
2023/03/26 08:34:30;;;;;;;16.53;7.93;;;;;;;;;;5081198;28;20581;-67
2023/03/26 08:36:56;;;;;;;21.53;8.87;;;;;;;;;;5079070;28;20655;-67
2023/03/26 08:39:23;;;;;;;16.53;8.10;;;;;;;;;;5080509;28;21069;-67
2023/03/26 08:42:15;;;;;;;17.90;8.13;;;;;;;;;;5081412;28;20483;-67
2023/03/26 08:45:02;;;;;;;21.30;8.10;;;;;;;;;;5078211;28;20472;-66
2023/03/26 08:47:46;;;;;;;24.80;7.87;;;;;;;;;;5080982;28;20692;-67
2023/03/26 08:50:25;;;;;;;19.07;7.70;;;;;;;;;;5081002;28;20456;-66
2023/03/26 08:53:10;;;;;;;20.70;9.20;;;;;;;;;;5077060;28;20543;-66
2023/03/26 08:55:49;;;;;;;24.90;9.27;;;;;;;;;;5067324;28;20480;-66
2023/03/26 08:58:30;;;;;;;17.83;8.87;;;;;;;;;;5072695;28;20452;-66
2023/03/26 09:01:12;;;;;;;15.90;8.57;;;;;;;;;;5075979;28;20534;-67
2023/03/26 09:03:47;;;;;;;20.10;8.47;;;;;;;;;;5076354;28;20550;-67
2023/03/26 09:06:20;;;;;;;20.17;8.57;;;;;;;;;;5080632;28;20470;-67
2023/03/26 09:09:17;;;;;;;24.67;7.30;;;;;;;;;;5080076;28;20516;-69
2023/03/26 09:12:16;;;;;;;15.40;7.10;;;;;;;;;;4998543;28;20480;-67
2023/03/26 09:14:56;;;;;;;17.20;7.50;;;;;;;;;;5015430;28;20551;-67
2023/03/26 09:17:43;;;;;;;25.03;9.00;;;;;;;;;;5053685;28;20479;-67
2023/03/26 09:20:33;;;;;;;13.20;6.90;;;;;;;;;;5038617;28;20858;-67
2023/03/26 09:23:19;;;;;;;15.30;7.07;;;;;;;;;;4985195;28;20488;-67
2023/03/26 09:25:53;;;;;;;20.20;8.90;;;;;;;;;;5074392;28;20483;-67
2023/03/26 09:28:43;;;;;;;22.57;7.93;;;;;;;;;;5078722;28;20512;-67
2023/03/26 09:31:15;;;;;;;18.57;6.73;;;;;;;;;;5062871;28;21019;-67
2023/03/26 09:33:55;;;;;;;17.43;7.77;;;;;;;;;;5079845;28;20496;-67
2023/03/26 09:36:31;;;;;;;24.03;8.40;;;;;;;;;;5079174;28;20540;-67
2023/03/26 09:39:03;;;;;;;19.23;7.70;;;;;;;;;;5078948;28;20484;-67
2023/03/26 09:41:35;;;;;;;21.20;8.90;;;;;;;;;;5079094;28;20481;-67
2023/03/26 09:44:16;;;;;;;17.03;7.50;;;;;;;;;;5079189;28;20980;-66
2023/03/26 09:46:47;;;;;;;20.30;8.53;;;;;;;;;;5073396;28;20500;-66
2023/03/26 09:49:22;;;;;;;14.33;7.63;;;;;;;;;;5080662;28;20452;-66
2023/03/26 09:51:57;;;;;;;18.80;7.57;;;;;;;;;;5078947;28;20510;-66
2023/03/26 09:54:43;;;;;;;13.67;6.90;;;;;;;;;;5079330;28;20462;-67
2023/03/26 09:57:14;;;;;;;18.10;7.60;;;;;;;;;;5075604;28;20476;-67
2023/03/26 09:59:47;;;;;;;20.63;8.50;;;;;;;;;;5078248;28;20452;-67
2023/03/26 10:02:19;;;;;;;15.47;7.07;;;;;;;;;;5078792;28;20495;-67
2023/03/26 10:05:06;;;;;;;15.20;7.10;;;;;;;;;;5077400;28;20466;-67
2023/03/26 10:07:40;;;;;;;19.93;8.00;;;;;;;;;;5070226;28;20529;-67
2023/03/26 10:10:17;;;;;;;20.33;8.70;;;;;;;;;;5078678;28;20507;-67
2023/03/26 10:12:46;;;;;;;18.07;7.50;;;;;;;;;;5078995;28;20443;-67
2023/03/26 10:15:24;;;;;;;13.47;9.00;;;;;;;;;;5077803;28;20488;-67
2023/03/26 10:17:56;;;;;;;24.70;9.73;;;;;;;;;;5072204;28;20448;-67
2023/03/26 10:20:29;;;;;;;16.77;8.73;;;;;;;;;;5078481;28;20452;-67
2023/03/26 10:23:02;;;;;;;20.87;9.17;;;;;;;;;;5079356;28;20444;-67
2023/03/26 10:25:32;;;;;;;21.17;11.23;;;;;;;;;;5077860;28;20488;-67
2023/03/26 10:28:05;;;;;;;19.47;10.50;;;;;;;;;;5078394;28;20478;-67
2023/03/26 10:30:36;;;;;;;21.73;10.57;;;;;;;;;;5080301;28;20981;-67
2023/03/26 10:33:09;;;;;;;28.67;12.70;;;;;;;;;;5083872;28;20479;-67
2023/03/26 10:35:44;;;;;;;22.20;10.57;;;;;;;;;;5082042;28;20510;-66
2023/03/26 10:38:16;;;;;;;25.40;11.23;;;;;;;;;;5079550;28;20921;-66
2023/03/26 10:40:47;;;;;;;19.23;11.00;;;;;;;;;;5082547;28;20539;-67
2023/03/26 10:43:29;;;;;;;26.53;11.73;;;;;;;;;;5082974;28;20487;-67
2023/03/26 10:46:19;;;;;;;29.00;12.23;;;;;;;;;;5072852;28;20483;-67
2023/03/26 10:49:03;;;;;;;22.73;11.80;;;;;;;;;;5050291;28;20472;-67
2023/03/26 10:51:36;;;;;;;23.23;11.37;;;;;;;;;;5074396;28;20480;-66
2023/03/26 10:54:06;;;;;;;27.50;11.17;;;;;;;;;;5080670;28;20504;-67
2023/03/26 10:56:34;;;;;;;21.03;11.17;;;;;;;;;;5082191;28;20468;-69
2023/03/26 10:59:05;;;;;;;22.70;10.43;;;;;;;;;;5082464;28;20452;-69
2023/03/26 11:01:35;;;;;;;17.80;10.87;;;;;;;;;;5074519;28;20481;-68
2023/03/26 11:04:09;;;;;;;18.77;11.00;;;;;;;;;;5062065;28;20452;-68
2023/03/26 11:06:40;;;;;;;21.50;11.17;;;;;;;;;;5061236;28;20596;-68
2023/03/26 11:09:11;;;;;;;19.10;10.63;;;;;;;;;;5067493;28;20459;-70
2023/03/26 11:11:43;;;;;;;22.80;11.10;;;;;;;;;;5073312;28;20491;-70
2023/03/26 11:14:15;;;;;;;20.63;12.47;;;;;;;;;;5062907;28;20453;-68
2023/03/26 11:16:48;;;;;;;29.13;11.93;;;;;;;;;;5061094;28;20487;-69
2023/03/26 11:19:20;;;;;;;26.30;12.37;;;;;;;;;;5061911;28;20694;-70
2023/03/26 11:21:52;;;;;;;32.53;14.00;;;;;;;;;;5048128;28;20496;-68
2023/03/26 11:24:36;;;;;;;21.53;13.77;;;;;;;;;;5066947;28;20840;-69
2023/03/26 11:27:05;;;;;;;29.50;14.40;;;;;;;;;;5051045;28;20476;-68
2023/03/26 11:29:40;;;;;;;24.33;13.40;;;;;;;;;;5060604;28;20486;-70
2023/03/26 11:32:10;;;;;;;26.80;14.33;;;;;;;;;;5061395;28;20523;-70
2023/03/26 11:34:40;;;;;;;24.73;14.17;;;;;;;;;;5065962;28;20487;-69
2023/03/26 11:37:08;;;;;;;27.13;14.23;;;;;;;;;;5060283;28;20473;-68
2023/03/26 11:39:38;;;;;;;26.20;13.60;;;;;;;;;;5066259;28;20494;-68
2023/03/26 11:42:06;;;;;;;35.83;16.30;;;;;;;;;;5072083;28;20493;-69
2023/03/26 11:44:35;;;;;;;30.50;14.90;;;;;;;;;;5060160;28;20560;-68
2023/03/26 11:47:03;;;;;;;28.27;15.27;;;;;;;;;;5062922;28;20504;-68
2023/03/26 11:49:30;;;;;;;27.80;14.07;;;;;;;;;;5062219;28;20483;-68
2023/03/26 11:52:00;;;;;;;26.30;14.27;;;;;;;;;;5060447;28;20570;-69
2023/03/26 11:54:27;;;;;;;38.83;18.40;;;;;;;;;;5065576;28;21057;-69
2023/03/26 11:56:54;;;;;;;35.03;17.10;;;;;;;;;;5062685;28;20519;-73
2023/03/26 11:59:23;;;;;;;28.70;15.70;;;;;;;;;;5065481;28;20449;-68
2023/03/26 12:01:51;;;;;;;23.73;13.33;;;;;;;;;;5069844;28;20571;-71
2023/03/26 12:04:19;;;;;;;24.93;14.93;;;;;;;;;;5081124;28;20536;-70
2023/03/26 12:06:51;;;;;;;31.13;14.63;;;;;;;;;;5079669;28;20492;-72
2023/03/26 12:09:19;;;;;;;29.33;14.83;;;;;;;;;;5080523;28;20471;-71
2023/03/26 12:11:47;;;;;;;32.63;14.20;;;;;;;;;;5080674;28;20472;-66
2023/03/26 12:14:17;;;;;;;23.13;12.97;;;;;;;;;;5078659;28;20495;-67
2023/03/26 12:16:56;;;;;;;31.90;15.10;;;;;;;;;;5080309;28;20476;-67
2023/03/26 12:19:23;;;;;;;26.77;14.67;;;;;;;;;;5077758;28;20525;-67
2023/03/26 12:21:51;;;;;;;26.77;14.33;;;;;;;;;;5078822;28;20484;-67
2023/03/26 12:24:30;;;;;;;23.07;13.60;;;;;;;;;;5079764;28;20448;-66
2023/03/26 12:27:00;;;;;;;27.60;14.20;;;;;;;;;;5078298;28;20511;-66
2023/03/26 12:29:27;;;;;;;27.63;13.30;;;;;;;;;;5080154;28;20456;-67
2023/03/26 12:31:55;;;;;;;29.87;14.27;;;;;;;;;;5080141;28;20484;-67
2023/03/26 12:34:23;;;;;;;31.03;15.10;;;;;;;;;;5080686;28;20985;-68
2023/03/26 12:36:51;;;;;;;28.70;15.10;;;;;;;;;;5080158;28;20546;-67
2023/03/26 12:39:37;;;;;;;27.53;11.90;;;;;;;;;;5081763;28;20859;-69
2023/03/26 12:42:06;;;;;;;25.67;13.20;;;;;;;;;;5080531;28;20714;-68
2023/03/26 12:44:34;;;;;;;24.53;11.60;;;;;;;;;;5080159;28;20492;-68
2023/03/26 12:47:08;;;;;;;20.53;11.30;;;;;;;;;;5080143;28;20488;-68
2023/03/26 12:49:37;;;;;;;16.90;10.53;;;;;;;;;;5079572;28;20551;-68
2023/03/26 12:52:10;;;;;;;16.80;10.77;;;;;;;;;;5079859;28;20503;-68
2023/03/26 12:54:50;;;;;;;16.50;10.10;;;;;;;;;;5079326;28;20515;-68
2023/03/26 12:57:19;;;;;;;26.13;12.90;;;;;;;;;;5079775;28;20472;-67
2023/03/26 13:00:00;;;;;;;9.80;6.67;;;;;;;;;;5075020;28;20468;-67
2023/03/26 13:02:48;;;;;;;14.93;8.57;;;;;;;;;;5081032;28;20514;-67
2023/03/26 13:05:22;;;;;;;9.80;5.80;;;;;;;;;;5079348;28;21012;-68
2023/03/26 13:07:57;;;;;;;14.93;7.13;;;;;;;;;;5072562;28;20456;-68
2023/03/26 13:10:41;;;;;;;15.37;8.10;;;;;;;;;;5080481;28;20470;-68
2023/03/26 13:13:24;;;;;;;15.20;9.10;;;;;;;;;;5080388;28;20460;-67
2023/03/26 13:15:53;;;;;;;14.70;8.63;;;;;;;;;;5069047;28;20490;-68
2023/03/26 13:18:24;;;;;;;13.93;8.67;;;;;;;;;;5081289;28;20471;-67
2023/03/26 13:20:54;;;;;;;14.60;8.40;;;;;;;;;;5080295;28;20479;-69
2023/03/26 13:23:27;;;;;;;10.40;6.80;;;;;;;;;;5080944;28;20462;-71
2023/03/26 13:25:59;;;;;;;10.90;7.07;;;;;;;;;;5078865;28;20469;-70
2023/03/26 13:28:32;;;;;;;9.20;5.50;;;;;;;;;;5080767;28;20472;-69
2023/03/26 13:31:05;;;;;;;10.80;5.23;;;;;;;;;;5079255;28;20480;-70
2023/03/26 13:33:49;;;;;;;7.97;5.50;;;;;;;;;;5075128;28;20456;-71
2023/03/26 13:36:19;;;;;;;8.30;5.10;;;;;;;;;;5079795;28;20495;-71
2023/03/26 13:38:53;;;;;;;9.77;6.90;;;;;;;;;;5080831;28;20456;-71
2023/03/26 13:41:24;;;;;;;10.33;5.63;;;;;;;;;;5079284;28;20558;-70
2023/03/26 13:43:57;;;;;;;9.60;5.83;;;;;;;;;;5080526;28;21018;-70
2023/03/26 13:46:28;;;;;;;9.53;5.07;;;;;;;;;;5078843;28;20507;-71
2023/03/26 13:48:57;;;;;;;8.63;5.03;;;;;;;;;;5080810;28;20475;-71
2023/03/26 13:51:26;;;;;;;9.23;5.40;;;;;;;;;;5080025;28;20564;-71
2023/03/26 13:53:55;;;;;;;14.03;5.93;;;;;;;;;;5079713;28;20851;-71
2023/03/26 13:56:25;;;;;;;12.23;6.83;;;;;;;;;;5080006;28;20476;-72
2023/03/26 13:58:54;;;;;;;6.37;3.83;;;;;;;;;;5080341;28;20497;-71
2023/03/26 14:01:23;;;;;;;7.23;5.47;;;;;;;;;;5079033;28;20484;-71
2023/03/26 14:03:54;;;;;;;4.60;3.17;;;;;;;;;;5079844;28;20467;-71
2023/03/26 14:06:27;;;;;;;5.50;3.80;;;;;;;;;;5078814;28;20540;-69
2023/03/26 14:08:57;;;;;;;6.83;4.00;;;;;;;;;;5070285;28;20456;-70
2023/03/26 14:11:28;;;;;;;3.83;3.20;;;;;;;;;;5078781;28;20487;-69
2023/03/26 14:13:56;;;;;;;8.67;5.03;;;;;;;;;;5080011;28;20482;-70
2023/03/26 14:16:27;;;;;;;9.53;5.53;;;;;;;;;;5078319;28;20750;-69
2023/03/26 14:18:57;;;;;;;8.90;5.17;;;;;;;;;;5080483;28;20446;-70
2023/03/26 14:21:39;;;;;;;9.37;4.50;;;;;;;;;;5077573;28;20468;-70
2023/03/26 14:24:23;;;;;;;4.93;4.37;;;;;;;;;;5079460;28;20475;-69
2023/03/26 14:26:57;;;;;;;5.57;3.70;;;;;;;;;;5079012;28;20500;-69
2023/03/26 14:29:28;;;;;;;7.73;4.20;;;;;;;;;;5075925;28;20486;-71
2023/03/26 14:32:03;;;;;;;10.00;4.80;;;;;;;;;;5078565;28;20743;-70
2023/03/26 14:34:41;;;;;;;8.57;5.20;;;;;;;;;;5078891;28;20527;-70
2023/03/26 14:37:26;;;;;;;9.03;5.43;;;;;;;;;;5075846;28;20509;-69
2023/03/26 14:40:13;;;;;;;8.87;5.40;;;;;;;;;;5078490;28;20444;-69
2023/03/26 14:42:42;;;;;;;11.97;6.60;;;;;;;;;;5077729;28;20472;-68
2023/03/26 14:45:27;;;;;;;12.73;7.67;;;;;;;;;;5077284;28;20486;-67